sensor_id;sensor_type;location;lat;lon;timestamp;pressure;altitude;pressure_sealevel;temperature;humidity
18858;BME280;9558;50.178;8.370;2023-06-26T00:00:15;98167.69;;;16.88;91.86
18858;BME280;9558;50.178;8.370;2023-06-26T00:03:02;98165.66;;;16.83;91.61
18858;BME280;9558;50.178;8.370;2023-06-26T00:05:48;98169.53;;;16.81;91.79
18858;BME280;9558;50.178;8.370;2023-06-26T00:08:36;98173.56;;;16.76;91.76
18858;BME280;9558;50.178;8.370;2023-06-26T00:11:22;98169.56;;;16.74;91.43
18858;BME280;9558;50.178;8.370;2023-06-26T00:14:11;98177.41;;;16.74;92.70
18858;BME280;9558;50.178;8.370;2023-06-26T00:16:57;98173.41;;;16.71;92.43
18858;BME280;9558;50.178;8.370;2023-06-26T00:19:44;98168.63;;;16.68;92.85
18858;BME280;9558;50.178;8.370;2023-06-26T00:22:31;98168.03;;;16.66;92.84
18858;BME280;9558;50.178;8.370;2023-06-26T00:25:17;98166.88;;;16.62;93.35
18858;BME280;9558;50.178;8.370;2023-06-26T00:28:05;98163.09;;;16.58;92.86
18858;BME280;9558;50.178;8.370;2023-06-26T00:30:53;98165.09;;;16.56;93.36
18858;BME280;9558;50.178;8.370;2023-06-26T00:33:40;98155.06;;;16.53;93.33
18858;BME280;9558;50.178;8.370;2023-06-26T00:36:26;98160.72;;;16.50;93.08
18858;BME280;9558;50.178;8.370;2023-06-26T00:39:13;98157.34;;;16.49;93.71
18858;BME280;9558;50.178;8.370;2023-06-26T00:42:00;98164.56;;;16.47;93.49
18858;BME280;9558;50.178;8.370;2023-06-26T00:44:47;98157.94;;;16.45;93.90
18858;BME280;9558;50.178;8.370;2023-06-26T00:47:35;98152.38;;;16.41;94.04
18858;BME280;9558;50.178;8.370;2023-06-26T00:50:22;98155.19;;;16.39;94.39
18858;BME280;9558;50.178;8.370;2023-06-26T00:53:11;98153.59;;;16.38;94.29
18858;BME280;9558;50.178;8.370;2023-06-26T00:55:58;98153.00;;;16.36;94.32
18858;BME280;9558;50.178;8.370;2023-06-26T00:58:45;98148.78;;;16.35;94.70
18858;BME280;9558;50.178;8.370;2023-06-26T01:01:32;98147.63;;;16.31;94.55
18858;BME280;9558;50.178;8.370;2023-06-26T01:04:20;98142.81;;;16.28;94.51
18858;BME280;9558;50.178;8.370;2023-06-26T01:07:07;98139.59;;;16.26;95.18
18858;BME280;9558;50.178;8.370;2023-06-26T01:09:54;98147.44;;;16.26;95.06
18858;BME280;9558;50.178;8.370;2023-06-26T01:12:41;98145.84;;;16.25;95.02
18858;BME280;9558;50.178;8.370;2023-06-26T01:15:27;98138.25;;;16.23;95.62
18858;BME280;9558;50.178;8.370;2023-06-26T01:18:14;98136.25;;;16.19;95.46
18858;BME280;9558;50.178;8.370;2023-06-26T01:21:04;98137.50;;;16.16;95.50
18858;BME280;9558;50.178;8.370;2023-06-26T01:24:07;98137.69;;;16.15;95.96
18858;BME280;9558;50.178;8.370;2023-06-26T01:26:57;98135.28;;;16.13;95.99
18858;BME280;9558;50.178;8.370;2023-06-26T01:29:45;98131.31;;;16.11;96.20
18858;BME280;9558;50.178;8.370;2023-06-26T01:32:33;98131.72;;;16.08;96.16
18858;BME280;9558;50.178;8.370;2023-06-26T01:35:20;98126.50;;;16.08;96.14
18858;BME280;9558;50.178;8.370;2023-06-26T01:38:14;98118.88;;;16.06;96.65
18858;BME280;9558;50.178;8.370;2023-06-26T01:41:02;98123.72;;;16.02;96.21
18858;BME280;9558;50.178;8.370;2023-06-26T01:44:01;98123.72;;;16.02;96.62
18858;BME280;9558;50.178;8.370;2023-06-26T01:46:55;98120.50;;;16.00;96.58
18858;BME280;9558;50.178;8.370;2023-06-26T01:49:47;98118.94;;;15.99;96.74
18858;BME280;9558;50.178;8.370;2023-06-26T01:52:40;98120.72;;;15.99;96.92
18858;BME280;9558;50.178;8.370;2023-06-26T01:55:32;98116.53;;;15.98;97.40
18858;BME280;9558;50.178;8.370;2023-06-26T01:58:23;98111.91;;;15.93;96.87
18858;BME280;9558;50.178;8.370;2023-06-26T02:01:13;98113.16;;;15.91;97.03
18858;BME280;9558;50.178;8.370;2023-06-26T02:04:00;98117.56;;;15.90;96.96
18858;BME280;9558;50.178;8.370;2023-06-26T02:06:46;98114.97;;;15.90;97.74
18858;BME280;9558;50.178;8.370;2023-06-26T02:09:33;98126.63;;;15.87;97.45
18858;BME280;9558;50.178;8.370;2023-06-26T02:12:20;98116.59;;;15.84;97.55
18858;BME280;9558;50.178;8.370;2023-06-26T02:15:08;98114.19;;;15.83;97.76
18858;BME280;9558;50.178;8.370;2023-06-26T02:17:56;98116.44;;;15.79;98.39
18858;BME280;9558;50.178;8.370;2023-06-26T02:20:43;98111.41;;;15.78;98.00
18858;BME280;9558;50.178;8.370;2023-06-26T02:23:30;98109.81;;;15.77;98.06
18858;BME280;9558;50.178;8.370;2023-06-26T02:26:16;98110.59;;;15.77;98.41
18858;BME280;9558;50.178;8.370;2023-06-26T02:29:03;98110.59;;;15.77;99.04
18858;BME280;9558;50.178;8.370;2023-06-26T02:31:50;98117.44;;;15.71;98.32
18858;BME280;9558;50.178;8.370;2023-06-26T02:34:38;98112.66;;;15.68;98.23
18858;BME280;9558;50.178;8.370;2023-06-26T02:37:25;98114.69;;;15.66;99.06
18858;BME280;9558;50.178;8.370;2023-06-26T02:40:12;98113.06;;;15.65;98.82
18858;BME280;9558;50.178;8.370;2023-06-26T02:42:58;98112.50;;;15.63;99.08
18858;BME280;9558;50.178;8.370;2023-06-26T02:45:45;98113.50;;;15.62;98.89
18858;BME280;9558;50.178;8.370;2023-06-26T02:48:32;98099.63;;;15.62;99.25
18858;BME280;9558;50.178;8.370;2023-06-26T02:51:20;98108.28;;;15.62;99.29
18858;BME280;9558;50.178;8.370;2023-06-26T02:54:07;98098.28;;;15.59;99.63
18858;BME280;9558;50.178;8.370;2023-06-26T02:56:53;98100.28;;;15.57;99.44
18858;BME280;9558;50.178;8.370;2023-06-26T02:59:40;98102.31;;;15.55;99.75
18858;BME280;9558;50.178;8.370;2023-06-26T03:02:27;98099.69;;;15.55;99.60
18858;BME280;9558;50.178;8.370;2023-06-26T03:05:14;98103.31;;;15.54;99.88
18858;BME280;9558;50.178;8.370;2023-06-26T03:08:02;98099.69;;;15.55;99.44
18858;BME280;9558;50.178;8.370;2023-06-26T03:10:49;98095.47;;;15.54;99.88
18858;BME280;9558;50.178;8.370;2023-06-26T03:13:36;98095.47;;;15.54;99.85
18858;BME280;9558;50.178;8.370;2023-06-26T03:16:23;98093.50;;;15.49;99.66
18858;BME280;9558;50.178;8.370;2023-06-26T03:19:10;98100.50;;;15.49;99.78
18858;BME280;9558;50.178;8.370;2023-06-26T03:21:56;98095.91;;;15.51;100.00
18858;BME280;9558;50.178;8.370;2023-06-26T03:24:45;98095.91;;;15.51;99.92
18858;BME280;9558;50.178;8.370;2023-06-26T03:27:32;98099.50;;;15.50;100.00
18858;BME280;9558;50.178;8.370;2023-06-26T03:30:18;98098.28;;;15.52;100.00
18858;BME280;9558;50.178;8.370;2023-06-26T03:33:05;98093.88;;;15.53;100.00
18858;BME280;9558;50.178;8.370;2023-06-26T03:35:52;98093.28;;;15.51;100.00
18858;BME280;9558;50.178;8.370;2023-06-26T03:38:39;98094.91;;;15.52;100.00
18858;BME280;9558;50.178;8.370;2023-06-26T03:41:27;98092.69;;;15.49;100.00
18858;BME280;9558;50.178;8.370;2023-06-26T03:44:13;98092.69;;;15.49;100.00
18858;BME280;9558;50.178;8.370;2023-06-26T03:47:00;98089.91;;;15.50;100.00
18858;BME280;9558;50.178;8.370;2023-06-26T03:49:47;98091.47;;;15.51;100.00
18858;BME280;9558;50.178;8.370;2023-06-26T03:52:34;98082.66;;;15.52;100.00
18858;BME280;9558;50.178;8.370;2023-06-26T03:55:21;98085.84;;;15.54;100.00
18858;BME280;9558;50.178;8.370;2023-06-26T03:58:11;98087.22;;;15.57;100.00
18858;BME280;9558;50.178;8.370;2023-06-26T04:00:57;98086.81;;;15.60;100.00
18858;BME280;9558;50.178;8.370;2023-06-26T04:03:44;98086.59;;;15.62;100.00
18858;BME280;9558;50.178;8.370;2023-06-26T04:06:31;98091.63;;;15.63;100.00
18858;BME280;9558;50.178;8.370;2023-06-26T04:09:18;98086.56;;;15.68;100.00
18858;BME280;9558;50.178;8.370;2023-06-26T04:12:06;98089.34;;;15.73;100.00
18858;BME280;9558;50.178;8.370;2023-06-26T04:14:54;98089.34;;;15.73;100.00
18858;BME280;9558;50.178;8.370;2023-06-26T04:17:41;98092.53;;;15.76;100.00
18858;BME280;9558;50.178;8.370;2023-06-26T04:20:27;98095.94;;;15.83;100.00
18858;BME280;9558;50.178;8.370;2023-06-26T04:23:14;98091.53;;;15.83;100.00
18858;BME280;9558;50.178;8.370;2023-06-26T04:26:01;98099.72;;;15.87;100.00
18858;BME280;9558;50.178;8.370;2023-06-26T04:28:50;98099.31;;;15.90;100.00
18858;BME280;9558;50.178;8.370;2023-06-26T04:31:38;98098.09;;;15.93;100.00
18858;BME280;9558;50.178;8.370;2023-06-26T04:34:26;98099.63;;;16.00;100.00
18858;BME280;9558;50.178;8.370;2023-06-26T04:37:13;98099.22;;;16.03;100.00
18858;BME280;9558;50.178;8.370;2023-06-26T04:40:02;98094.38;;;16.07;100.00
18858;BME280;9558;50.178;8.370;2023-06-26T04:42:49;98090.09;;;16.13;100.00
18858;BME280;9558;50.178;8.370;2023-06-26T04:45:36;98094.47;;;16.19;100.00
18858;BME280;9558;50.178;8.370;2023-06-26T04:48:24;98093.63;;;16.25;100.00
18858;BME280;9558;50.178;8.370;2023-06-26T04:51:13;98090.59;;;16.28;100.00
18858;BME280;9558;50.178;8.370;2023-06-26T04:53:59;98088.94;;;16.34;100.00
18858;BME280;9558;50.178;8.370;2023-06-26T04:56:46;98088.88;;;16.40;100.00
18858;BME280;9558;50.178;8.370;2023-06-26T04:59:33;98089.63;;;16.48;100.00
18858;BME280;9558;50.178;8.370;2023-06-26T05:02:20;98092.97;;;16.55;100.00
18858;BME280;9558;50.178;8.370;2023-06-26T05:05:08;98087.88;;;16.60;100.00
18858;BME280;9558;50.178;8.370;2023-06-26T05:07:56;98093.41;;;16.70;100.00
18858;BME280;9558;50.178;8.370;2023-06-26T05:10:43;98090.97;;;16.75;100.00
18858;BME280;9558;50.178;8.370;2023-06-26T05:13:30;98097.91;;;16.82;100.00
18858;BME280;9558;50.178;8.370;2023-06-26T05:16:16;98097.88;;;16.88;100.00
18858;BME280;9558;50.178;8.370;2023-06-26T05:19:03;98088.75;;;16.98;100.00
18858;BME280;9558;50.178;8.370;2023-06-26T05:21:52;98093.09;;;17.04;100.00
18858;BME280;9558;50.178;8.370;2023-06-26T05:24:39;98097.81;;;17.14;100.00
18858;BME280;9558;50.178;8.370;2023-06-26T05:27:27;98095.94;;;17.21;100.00
18858;BME280;9558;50.178;8.370;2023-06-26T05:30:15;98091.41;;;17.28;100.00
18858;BME280;9558;50.178;8.370;2023-06-26T05:33:02;98087.91;;;17.34;100.00
18858;BME280;9558;50.178;8.370;2023-06-26T05:35:52;98092.38;;;17.45;100.00
18858;BME280;9558;50.178;8.370;2023-06-26T05:38:41;98082.50;;;17.48;100.00
18858;BME280;9558;50.178;8.370;2023-06-26T05:41:28;98085.03;;;17.54;100.00
18858;BME280;9558;50.178;8.370;2023-06-26T05:44:15;98085.97;;;17.60;100.00
18858;BME280;9558;50.178;8.370;2023-06-26T05:47:02;98085.88;;;17.67;100.00
18858;BME280;9558;50.178;8.370;2023-06-26T05:49:49;98089.97;;;17.74;100.00
18858;BME280;9558;50.178;8.370;2023-06-26T05:52:36;98093.88;;;17.84;100.00
18858;BME280;9558;50.178;8.370;2023-06-26T05:55:26;98096.78;;;17.94;100.00
18858;BME280;9558;50.178;8.370;2023-06-26T05:58:14;98091.00;;;18.04;100.00
18858;BME280;9558;50.178;8.370;2023-06-26T06:01:01;98087.59;;;18.15;100.00
18858;BME280;9558;50.178;8.370;2023-06-26T06:03:48;98086.13;;;18.31;100.00
18858;BME280;9558;50.178;8.370;2023-06-26T06:06:34;98082.38;;;18.51;98.60
18858;BME280;9558;50.178;8.370;2023-06-26T06:09:21;98088.59;;;18.73;98.70
18858;BME280;9558;50.178;8.370;2023-06-26T06:12:09;98082.91;;;19.00;95.93
18858;BME280;9558;50.178;8.370;2023-06-26T06:14:56;98081.78;;;19.37;96.45
18858;BME280;9558;50.178;8.370;2023-06-26T06:17:43;98085.91;;;19.78;95.40
18858;BME280;9558;50.178;8.370;2023-06-26T06:20:30;98092.09;;;20.35;92.71
18858;BME280;9558;50.178;8.370;2023-06-26T06:23:17;98092.53;;;21.05;88.60
18858;BME280;9558;50.178;8.370;2023-06-26T06:26:03;98094.03;;;21.72;86.55
18858;BME280;9558;50.178;8.370;2023-06-26T06:28:51;98100.69;;;22.50;83.99
18858;BME280;9558;50.178;8.370;2023-06-26T06:31:38;98100.06;;;23.34;80.73
18858;BME280;9558;50.178;8.370;2023-06-26T06:34:25;98099.88;;;24.18;75.92
18858;BME280;9558;50.178;8.370;2023-06-26T06:37:12;98104.25;;;24.99;72.67
18858;BME280;9558;50.178;8.370;2023-06-26T06:39:58;98094.28;;;25.81;71.38
18858;BME280;9558;50.178;8.370;2023-06-26T06:42:45;98106.50;;;26.65;67.02
18858;BME280;9558;50.178;8.370;2023-06-26T06:45:33;98106.72;;;27.41;63.59
18858;BME280;9558;50.178;8.370;2023-06-26T06:48:20;98101.38;;;28.12;60.42
18858;BME280;9558;50.178;8.370;2023-06-26T06:51:07;98107.72;;;28.77;52.35
18858;BME280;9558;50.178;8.370;2023-06-26T06:53:54;98113.38;;;29.40;50.53
18858;BME280;9558;50.178;8.370;2023-06-26T06:56:41;98111.41;;;29.91;48.23
18858;BME280;9558;50.178;8.370;2023-06-26T06:59:27;98112.13;;;30.37;50.42
18858;BME280;9558;50.178;8.370;2023-06-26T07:02:16;98109.34;;;30.73;48.13
18858;BME280;9558;50.178;8.370;2023-06-26T07:05:03;98111.50;;;31.02;46.10
18858;BME280;9558;50.178;8.370;2023-06-26T07:07:50;98106.63;;;31.22;46.74
18858;BME280;9558;50.178;8.370;2023-06-26T07:10:37;98107.44;;;31.40;45.92
18858;BME280;9558;50.178;8.370;2023-06-26T07:13:24;98112.66;;;31.63;45.70
18858;BME280;9558;50.178;8.370;2023-06-26T07:16:10;98107.59;;;31.87;46.06
18858;BME280;9558;50.178;8.370;2023-06-26T07:18:59;98109.75;;;32.12;45.07
18858;BME280;9558;50.178;8.370;2023-06-26T07:21:45;98114.75;;;32.31;44.01
18858;BME280;9558;50.178;8.370;2023-06-26T07:24:32;98115.16;;;32.50;43.47
18858;BME280;9558;50.178;8.370;2023-06-26T07:27:20;98115.28;;;32.63;42.15
18858;BME280;9558;50.178;8.370;2023-06-26T07:30:08;98110.94;;;32.79;40.64
18858;BME280;9558;50.178;8.370;2023-06-26T07:32:55;98113.34;;;33.02;40.64
18858;BME280;9558;50.178;8.370;2023-06-26T07:35:43;98108.16;;;32.97;40.97
18858;BME280;9558;50.178;8.370;2023-06-26T07:38:30;98108.31;;;33.21;41.37
18858;BME280;9558;50.178;8.370;2023-06-26T07:41:17;98117.38;;;33.38;39.06
18858;BME280;9558;50.178;8.370;2023-06-26T07:44:03;98120.09;;;33.71;39.50
18858;BME280;9558;50.178;8.370;2023-06-26T07:46:50;98119.19;;;34.01;38.80
18858;BME280;9558;50.178;8.370;2023-06-26T07:49:37;98130.41;;;34.15;38.20
18858;BME280;9558;50.178;8.370;2023-06-26T07:52:25;98133.28;;;33.98;38.09
18858;BME280;9558;50.178;8.370;2023-06-26T07:55:12;98124.16;;;33.56;37.99
18858;BME280;9558;50.178;8.370;2023-06-26T07:57:59;98119.06;;;33.21;37.43
18858;BME280;9558;50.178;8.370;2023-06-26T08:00:46;98127.78;;;32.88;38.05
18858;BME280;9558;50.178;8.370;2023-06-26T08:03:33;98124.41;;;32.62;38.53
18858;BME280;9558;50.178;8.370;2023-06-26T08:06:20;98127.09;;;32.14;38.68
18858;BME280;9558;50.178;8.370;2023-06-26T08:09:08;98136.88;;;31.58;39.23
18858;BME280;9558;50.178;8.370;2023-06-26T08:11:55;98133.59;;;30.85;40.56
18858;BME280;9558;50.178;8.370;2023-06-26T08:14:42;98144.38;;;30.72;40.02
18858;BME280;9558;50.178;8.370;2023-06-26T08:17:29;98149.28;;;30.78;40.13
18858;BME280;9558;50.178;8.370;2023-06-26T08:20:16;98155.06;;;31.21;40.01
18858;BME280;9558;50.178;8.370;2023-06-26T08:23:04;98147.25;;;31.68;39.15
18858;BME280;9558;50.178;8.370;2023-06-26T08:25:53;98142.53;;;32.17;38.66
18858;BME280;9558;50.178;8.370;2023-06-26T08:28:40;98147.81;;;32.82;37.41
18858;BME280;9558;50.178;8.370;2023-06-26T08:31:27;98145.91;;;33.42;36.61
18858;BME280;9558;50.178;8.370;2023-06-26T08:34:13;98150.50;;;33.97;36.00
18858;BME280;9558;50.178;8.370;2023-06-26T08:37:00;98154.72;;;34.65;35.10
18858;BME280;9558;50.178;8.370;2023-06-26T08:39:47;98141.94;;;34.74;35.11
18858;BME280;9558;50.178;8.370;2023-06-26T08:42:35;98152.69;;;34.74;34.73
18858;BME280;9558;50.178;8.370;2023-06-26T08:45:22;98152.22;;;34.35;34.63
18858;BME280;9558;50.178;8.370;2023-06-26T08:48:09;98153.28;;;33.88;35.84
18858;BME280;9558;50.178;8.370;2023-06-26T08:50:57;98159.25;;;33.30;36.71
18858;BME280;9558;50.178;8.370;2023-06-26T08:53:50;98143.94;;;33.52;36.39
18858;BME280;9558;50.178;8.370;2023-06-26T08:56:41;98154.53;;;33.90;36.45
18858;BME280;9558;50.178;8.370;2023-06-26T08:59:30;98145.94;;;34.31;35.02
18858;BME280;9558;50.178;8.370;2023-06-26T09:02:17;98146.53;;;34.73;34.84
18858;BME280;9558;50.178;8.370;2023-06-26T09:05:07;98144.59;;;35.23;34.07
18858;BME280;9558;50.178;8.370;2023-06-26T09:07:53;98149.00;;;35.69;33.99
18858;BME280;9558;50.178;8.370;2023-06-26T09:10:41;98148.22;;;36.12;34.36
18858;BME280;9558;50.178;8.370;2023-06-26T09:13:28;98149.06;;;36.45;32.74
18858;BME280;9558;50.178;8.370;2023-06-26T09:16:16;98147.22;;;36.65;33.31
18858;BME280;9558;50.178;8.370;2023-06-26T09:19:09;98156.56;;;36.36;31.72
18858;BME280;9558;50.178;8.370;2023-06-26T09:21:59;98154.97;;;36.35;32.84
18858;BME280;9558;50.178;8.370;2023-06-26T09:24:46;98154.41;;;36.13;33.17
18858;BME280;9558;50.178;8.370;2023-06-26T09:27:34;98157.84;;;35.97;33.08
18858;BME280;9558;50.178;8.370;2023-06-26T09:30:36;98162.59;;;35.88;33.44
18858;BME280;9558;50.178;8.370;2023-06-26T09:33:33;98164.47;;;35.59;33.50
18858;BME280;9558;50.178;8.370;2023-06-26T09:36:21;98164.31;;;35.27;34.30
18858;BME280;9558;50.178;8.370;2023-06-26T09:39:09;98176.47;;;34.96;34.98
18858;BME280;9558;50.178;8.370;2023-06-26T09:41:57;98178.88;;;34.40;35.15
18858;BME280;9558;50.178;8.370;2023-06-26T09:44:44;98187.97;;;34.14;36.25
18858;BME280;9558;50.178;8.370;2023-06-26T09:47:34;98189.31;;;33.87;36.16
18858;BME280;9558;50.178;8.370;2023-06-26T09:50:23;98188.22;;;33.58;35.98
18858;BME280;9558;50.178;8.370;2023-06-26T09:53:12;98192.22;;;33.31;36.01
18858;BME280;9558;50.178;8.370;2023-06-26T09:56:05;98192.13;;;33.10;35.73
18858;BME280;9558;50.178;8.370;2023-06-26T09:58:52;98189.16;;;32.81;35.86
18858;BME280;9558;50.178;8.370;2023-06-26T10:01:41;98189.34;;;32.59;36.53
18858;BME280;9558;50.178;8.370;2023-06-26T10:04:28;98181.09;;;32.34;36.03
18858;BME280;9558;50.178;8.370;2023-06-26T10:07:16;98183.31;;;32.05;36.49
18858;BME280;9558;50.178;8.370;2023-06-26T10:10:05;98179.06;;;31.78;37.25
18858;BME280;9558;50.178;8.370;2023-06-26T10:12:59;98172.41;;;31.49;37.90
18858;BME280;9558;50.178;8.370;2023-06-26T10:15:48;98171.13;;;31.38;38.28
18858;BME280;9558;50.178;8.370;2023-06-26T10:18:37;98170.66;;;31.27;38.52
18858;BME280;9558;50.178;8.370;2023-06-26T10:21:26;98169.69;;;31.23;39.57
18858;BME280;9558;50.178;8.370;2023-06-26T10:24:14;98176.44;;;31.21;39.32
18858;BME280;9558;50.178;8.370;2023-06-26T10:27:04;98171.28;;;31.15;40.48
18858;BME280;9558;50.178;8.370;2023-06-26T10:29:56;98171.84;;;31.04;40.74
18858;BME280;9558;50.178;8.370;2023-06-26T10:32:46;98175.56;;;30.94;41.08
18858;BME280;9558;50.178;8.370;2023-06-26T10:35:41;98156.50;;;30.87;41.20
18858;BME280;9558;50.178;8.370;2023-06-26T10:38:48;98159.81;;;30.83;41.78
18858;BME280;9558;50.178;8.370;2023-06-26T10:41:40;98172.84;;;30.76;41.92
18858;BME280;9558;50.178;8.370;2023-06-26T10:44:40;98179.53;;;30.65;42.20
18858;BME280;9558;50.178;8.370;2023-06-26T10:47:30;98179.97;;;30.49;42.56
18858;BME280;9558;50.178;8.370;2023-06-26T10:50:23;98171.56;;;30.42;43.56
18858;BME280;9558;50.178;8.370;2023-06-26T10:53:12;98165.72;;;30.40;43.35
18858;BME280;9558;50.178;8.370;2023-06-26T10:56:01;98171.06;;;30.40;43.05
18858;BME280;9558;50.178;8.370;2023-06-26T10:58:49;98175.63;;;30.40;43.72
18858;BME280;9558;50.178;8.370;2023-06-26T11:01:40;98172.78;;;30.36;43.89
18858;BME280;9558;50.178;8.370;2023-06-26T11:04:40;98175.59;;;30.31;43.91
18858;BME280;9558;50.178;8.370;2023-06-26T11:07:27;98174.13;;;30.25;43.45
18858;BME280;9558;50.178;8.370;2023-06-26T11:10:16;98176.06;;;30.10;41.92
18858;BME280;9558;50.178;8.370;2023-06-26T11:13:04;98182.13;;;30.02;42.96
18858;BME280;9558;50.178;8.370;2023-06-26T11:15:53;98196.75;;;30.05;43.44
18858;BME280;9558;50.178;8.370;2023-06-26T11:18:47;98183.72;;;30.03;42.82
18858;BME280;9558;50.178;8.370;2023-06-26T11:21:37;98174.94;;;30.03;42.46
18858;BME280;9558;50.178;8.370;2023-06-26T11:24:25;98173.03;;;30.03;42.59
18858;BME280;9558;50.178;8.370;2023-06-26T11:27:11;98177.41;;;29.99;41.81
18858;BME280;9558;50.178;8.370;2023-06-26T11:29:58;98178.31;;;29.94;41.90
18858;BME280;9558;50.178;8.370;2023-06-26T11:32:47;98181.28;;;29.93;42.01
18858;BME280;9558;50.178;8.370;2023-06-26T11:35:35;98178.22;;;29.99;41.97
18858;BME280;9558;50.178;8.370;2023-06-26T11:38:22;98166.72;;;29.99;41.42
18858;BME280;9558;50.178;8.370;2023-06-26T11:41:08;98177.75;;;30.06;42.62
18858;BME280;9558;50.178;8.370;2023-06-26T11:44:00;98198.81;;;30.08;42.73
18858;BME280;9558;50.178;8.370;2023-06-26T11:46:47;98195.84;;;30.09;42.88
18858;BME280;9558;50.178;8.370;2023-06-26T11:49:42;98184.06;;;30.10;43.40
18858;BME280;9558;50.178;8.370;2023-06-26T11:52:29;98188.44;;;30.06;43.65
18858;BME280;9558;50.178;8.370;2023-06-26T11:55:16;98191.66;;;29.94;43.80
18858;BME280;9558;50.178;8.370;2023-06-26T11:58:03;98193.25;;;29.95;43.82
18858;BME280;9558;50.178;8.370;2023-06-26T12:00:50;98199.97;;;29.93;44.03
18858;BME280;9558;50.178;8.370;2023-06-26T12:03:37;98201.13;;;30.01;44.40
18858;BME280;9558;50.178;8.370;2023-06-26T12:06:25;98209.06;;;29.92;44.72
18858;BME280;9558;50.178;8.370;2023-06-26T12:09:13;98206.09;;;29.79;44.66
18858;BME280;9558;50.178;8.370;2023-06-26T12:12:00;98213.03;;;29.67;45.29
18858;BME280;9558;50.178;8.370;2023-06-26T12:14:47;98214.06;;;29.57;45.62
18858;BME280;9558;50.178;8.370;2023-06-26T12:17:37;98215.38;;;29.45;46.55
18858;BME280;9558;50.178;8.370;2023-06-26T12:20:24;98224.53;;;29.39;46.55
18858;BME280;9558;50.178;8.370;2023-06-26T12:23:13;98218.13;;;29.26;46.56
18858;BME280;9558;50.178;8.370;2023-06-26T12:26:16;98218.00;;;29.18;47.00
18858;BME280;9558;50.178;8.370;2023-06-26T12:29:03;98227.69;;;29.13;46.95
18858;BME280;9558;50.178;8.370;2023-06-26T12:31:52;98217.22;;;29.03;46.81
18858;BME280;9558;50.178;8.370;2023-06-26T12:34:39;98218.59;;;28.87;46.90
18858;BME280;9558;50.178;8.370;2023-06-26T12:37:25;98223.13;;;28.72;47.35
18858;BME280;9558;50.178;8.370;2023-06-26T12:40:18;98220.47;;;28.53;47.77
18858;BME280;9558;50.178;8.370;2023-06-26T12:43:11;98225.69;;;28.44;48.39
18858;BME280;9558;50.178;8.370;2023-06-26T12:45:57;98226.56;;;28.40;48.32
18858;BME280;9558;50.178;8.370;2023-06-26T12:48:44;98216.69;;;28.40;48.41
18858;BME280;9558;50.178;8.370;2023-06-26T12:51:32;98223.00;;;28.44;48.30
18858;BME280;9558;50.178;8.370;2023-06-26T12:54:19;98213.72;;;28.42;48.92
18858;BME280;9558;50.178;8.370;2023-06-26T12:57:08;98224.38;;;28.42;47.81
18858;BME280;9558;50.178;8.370;2023-06-26T12:59:54;98220.56;;;28.48;47.90
18858;BME280;9558;50.178;8.370;2023-06-26T13:02:41;98215.25;;;28.48;47.78
18858;BME280;9558;50.178;8.370;2023-06-26T13:05:28;98220.34;;;28.44;46.49
18858;BME280;9558;50.178;8.370;2023-06-26T13:08:16;98223.00;;;28.44;47.11
18858;BME280;9558;50.178;8.370;2023-06-26T13:11:04;98211.16;;;28.37;46.80
18858;BME280;9558;50.178;8.370;2023-06-26T13:13:52;98218.44;;;28.31;46.80
18858;BME280;9558;50.178;8.370;2023-06-26T13:16:39;98225.31;;;28.32;47.64
18858;BME280;9558;50.178;8.370;2023-06-26T13:19:26;98225.31;;;28.32;46.89
18858;BME280;9558;50.178;8.370;2023-06-26T13:22:13;98216.16;;;28.24;46.14
18858;BME280;9558;50.178;8.370;2023-06-26T13:25:00;98210.13;;;28.19;46.72
18858;BME280;9558;50.178;8.370;2023-06-26T13:27:46;98223.00;;;28.12;46.56
18858;BME280;9558;50.178;8.370;2023-06-26T13:30:34;98218.25;;;28.08;46.39
18858;BME280;9558;50.178;8.370;2023-06-26T13:33:21;98221.50;;;28.05;46.42
18858;BME280;9558;50.178;8.370;2023-06-26T13:36:10;98231.91;;;28.02;46.54
18858;BME280;9558;50.178;8.370;2023-06-26T13:38:57;98237.47;;;28.05;46.99
18858;BME280;9558;50.178;8.370;2023-06-26T13:41:44;98224.66;;;28.07;46.12
18858;BME280;9558;50.178;8.370;2023-06-26T13:44:31;98232.72;;;28.02;45.82
18858;BME280;9558;50.178;8.370;2023-06-26T13:47:19;98238.59;;;27.99;45.39
18858;BME280;9558;50.178;8.370;2023-06-26T13:50:07;98255.56;;;28.03;45.76
18858;BME280;9558;50.178;8.370;2023-06-26T13:52:54;98258.75;;;28.05;45.50
18858;BME280;9558;50.178;8.370;2023-06-26T13:55:42;98258.22;;;28.03;45.73
18858;BME280;9558;50.178;8.370;2023-06-26T13:58:29;98268.38;;;28.01;44.68
18858;BME280;9558;50.178;8.370;2023-06-26T14:01:17;98262.00;;;27.97;44.78
18858;BME280;9558;50.178;8.370;2023-06-26T14:04:06;98267.47;;;27.87;44.11
18858;BME280;9558;50.178;8.370;2023-06-26T14:06:53;98267.03;;;27.80;43.71
18858;BME280;9558;50.178;8.370;2023-06-26T14:09:40;98257.31;;;27.70;43.64
18858;BME280;9558;50.178;8.370;2023-06-26T14:12:27;98267.13;;;27.50;42.73
18858;BME280;9558;50.178;8.370;2023-06-26T14:15:13;98261.22;;;27.29;42.89
18858;BME280;9558;50.178;8.370;2023-06-26T14:18:00;98247.47;;;27.22;44.15
18858;BME280;9558;50.178;8.370;2023-06-26T14:20:49;98249.34;;;27.21;43.99
18858;BME280;9558;50.178;8.370;2023-06-26T14:23:36;98256.97;;;27.04;41.89
18858;BME280;9558;50.178;8.370;2023-06-26T14:26:23;98250.19;;;26.93;42.50
18858;BME280;9558;50.178;8.370;2023-06-26T14:29:09;98262.72;;;26.87;42.62
18858;BME280;9558;50.178;8.370;2023-06-26T14:31:56;98249.25;;;26.78;42.37
18858;BME280;9558;50.178;8.370;2023-06-26T14:34:43;98252.97;;;26.77;42.88
18858;BME280;9558;50.178;8.370;2023-06-26T14:37:31;98246.63;;;26.73;42.39
18858;BME280;9558;50.178;8.370;2023-06-26T14:40:19;98267.59;;;26.75;42.73
18858;BME280;9558;50.178;8.370;2023-06-26T14:43:06;98262.28;;;26.75;42.25
18858;BME280;9558;50.178;8.370;2023-06-26T14:45:52;98265.50;;;26.71;42.77
18858;BME280;9558;50.178;8.370;2023-06-26T14:48:39;98253.75;;;26.78;42.67
18858;BME280;9558;50.178;8.370;2023-06-26T14:51:26;98254.00;;;26.81;42.49
18858;BME280;9558;50.178;8.370;2023-06-26T14:54:14;98258.47;;;26.86;43.00
18858;BME280;9558;50.178;8.370;2023-06-26T14:57:01;98271.53;;;26.82;41.58
18858;BME280;9558;50.178;8.370;2023-06-26T14:59:47;98266.22;;;26.82;41.94